Time;durP1;ratioP1;P1;durP2;ratioP2;P2;SDS_P1;SDS_P2;PMS_P1;PMS_P2;Temp;Humidity;BMP_temperature;BMP_pressure;BME280_temperature;BME280_humidity;BME280_pressure;Samples;Min_cycle;Max_cycle;Signal;HPM_P1;HPM_P2
2021/10/18 00:01:52;;;;;;;18.42;9.88;;;9.60;51.20;;;;;;4998808;28;20398;-79
2021/10/18 00:04:18;;;;;;;17.15;10.20;;;9.50;51.80;;;;;;4998989;28;20422;-80
2021/10/18 00:06:43;;;;;;;13.27;8.70;;;9.50;52.00;;;;;;5019539;28;20408;-79
2021/10/18 00:09:09;;;;;;;13.82;9.75;;;9.40;53.00;;;;;;5018438;28;20469;-79
2021/10/18 00:11:35;;;;;;;14.50;10.23;;;9.30;54.60;;;;;;5013353;28;20407;-78
2021/10/18 00:14:00;;;;;;;12.93;9.02;;;9.20;53.60;;;;;;5019469;28;20393;-78
2021/10/18 00:16:26;;;;;;;15.30;9.48;;;9.10;55.80;;;;;;5027098;28;20392;-78
2021/10/18 00:18:52;;;;;;;15.90;10.40;;;9.10;56.00;;;;;;5018185;28;20500;-77
2021/10/18 00:21:17;;;;;;;13.97;9.70;;;9.00;56.30;;;;;;5030910;28;20393;-78
2021/10/18 00:23:43;;;;;;;14.65;9.95;;;9.00;57.00;;;;;;5030867;28;20404;-77
2021/10/18 00:26:09;;;;;;;14.80;9.77;;;8.80;58.00;;;;;;5024870;28;20731;-78
2021/10/18 00:28:34;;;;;;;15.50;10.35;;;8.70;59.30;;;;;;5010351;28;20394;-80
2021/10/18 00:31:00;;;;;;;14.90;10.25;;;8.80;58.70;;;;;;4999365;28;20907;-79
2021/10/18 00:33:26;;;;;;;14.32;9.90;;;8.70;60.00;;;;;;5003872;28;20401;-79
2021/10/18 00:35:51;;;;;;;14.88;10.07;;;8.70;59.80;;;;;;5007643;28;20413;-80
2021/10/18 00:38:17;;;;;;;13.52;10.00;;;8.60;59.90;;;;;;4997290;28;20457;-79
2021/10/18 00:40:42;;;;;;;15.20;10.57;;;8.70;59.20;;;;;;4998343;28;20564;-79
2021/10/18 00:43:08;;;;;;;16.50;9.35;;;8.70;58.50;;;;;;4997534;28;20414;-79
2021/10/18 00:45:34;;;;;;;16.60;10.27;;;8.70;58.90;;;;;;4996457;28;20610;-79
2021/10/18 00:48:00;;;;;;;23.48;10.70;;;8.60;58.70;;;;;;4996511;28;20402;-77
2021/10/18 00:50:26;;;;;;;14.70;10.00;;;8.60;59.40;;;;;;4993089;28;20409;-77
2021/10/18 00:52:52;;;;;;;16.50;10.40;;;8.50;60.10;;;;;;4993350;28;20379;-78
2021/10/18 00:55:19;;;;;;;15.45;9.88;;;8.50;60.30;;;;;;4995037;28;20394;-79
2021/10/18 00:57:45;;;;;;;16.88;9.82;;;8.50;60.30;;;;;;4995050;28;20474;-79
2021/10/18 01:00:12;;;;;;;17.65;11.40;;;8.40;61.10;;;;;;4993043;28;20394;-77
2021/10/18 01:02:37;;;;;;;17.20;10.27;;;8.40;62.00;;;;;;4993209;28;20398;-77
2021/10/18 01:05:05;;;;;;;14.95;9.90;;;8.30;63.10;;;;;;4992604;28;20919;-79
2021/10/18 01:07:31;;;;;;;19.35;10.93;;;8.30;64.00;;;;;;4992542;28;20405;-78
2021/10/18 01:09:59;;;;;;;18.23;11.40;;;8.20;65.20;;;;;;4992432;28;20395;-78
2021/10/18 01:12:24;;;;;;;17.20;10.53;;;8.20;66.00;;;;;;5010417;28;20418;-78
2021/10/18 01:14:50;;;;;;;14.80;10.23;;;8.20;65.70;;;;;;5012009;28;20389;-78
2021/10/18 01:17:16;;;;;;;15.00;10.90;;;8.20;66.20;;;;;;4998696;28;20405;-79
2021/10/18 01:19:42;;;;;;;16.88;10.15;;;8.10;66.50;;;;;;4988009;28;20440;-79
2021/10/18 01:22:08;;;;;;;17.70;10.55;;;8.10;67.70;;;;;;4992008;28;20398;-78
2021/10/18 01:24:35;;;;;;;20.33;11.73;;;8.10;65.80;;;;;;4993347;28;20425;-79
2021/10/18 01:27:00;;;;;;;19.23;10.85;;;8.10;66.00;;;;;;5005241;28;20386;-79
2021/10/18 01:29:34;;;;;;;16.35;11.00;;;8.20;64.90;;;;;;4995391;28;20437;-79
2021/10/18 01:32:00;;;;;;;16.75;11.30;;;8.10;65.50;;;;;;5005697;28;20399;-79
2021/10/18 01:34:27;;;;;;;16.45;10.57;;;8.00;66.50;;;;;;4995600;28;20456;-77
2021/10/18 01:36:58;;;;;;;17.80;10.20;;;8.00;67.40;;;;;;4992236;28;20446;-78
2021/10/18 01:39:23;;;;;;;13.90;10.10;;;8.00;66.60;;;;;;4989970;28;20402;-76
2021/10/18 01:41:49;;;;;;;13.90;9.93;;;8.00;66.10;;;;;;4992165;28;20478;-76
2021/10/18 01:44:15;;;;;;;14.70;10.13;;;8.00;66.40;;;;;;4999216;28;20403;-77
2021/10/18 01:46:42;;;;;;;16.50;10.85;;;8.10;64.90;;;;;;5007165;28;20437;-80
2021/10/18 01:49:07;;;;;;;14.45;9.80;;;8.00;65.20;;;;;;5001582;28;20390;-78
2021/10/18 01:51:33;;;;;;;16.38;10.80;;;8.20;63.10;;;;;;4994598;28;20760;-79
2021/10/18 01:53:59;;;;;;;13.20;10.10;;;8.10;64.40;;;;;;4997995;28;20783;-79
2021/10/18 01:56:24;;;;;;;17.60;10.73;;;8.10;64.30;;;;;;5014406;28;20410;-78
2021/10/18 01:58:50;;;;;;;16.57;10.40;;;8.00;65.80;;;;;;5000719;28;20390;-79
2021/10/18 02:01:15;;;;;;;14.07;10.20;;;7.90;67.00;;;;;;5019515;28;20436;-78
2021/10/18 02:03:41;;;;;;;16.30;10.90;;;8.00;66.30;;;;;;5018545;28;20416;-79
2021/10/18 02:06:09;;;;;;;18.77;11.10;;;7.90;66.90;;;;;;4996728;28;20792;-78
2021/10/18 02:08:35;;;;;;;14.27;10.18;;;7.80;68.20;;;;;;4993343;28;20401;-78
2021/10/18 02:11:01;;;;;;;18.33;11.40;;;7.80;68.30;;;;;;5015357;28;20484;-80
2021/10/18 02:13:26;;;;;;;15.85;10.13;;;7.80;68.90;;;;;;5008025;28;20435;-78
2021/10/18 02:15:52;;;;;;;16.93;10.97;;;7.80;70.20;;;;;;4991790;28;20453;-78
2021/10/18 02:18:17;;;;;;;16.13;10.57;;;7.80;69.20;;;;;;4992587;28;20752;-77
2021/10/18 02:20:43;;;;;;;15.43;9.95;;;7.80;68.80;;;;;;4991121;28;20405;-78
2021/10/18 02:23:09;;;;;;;16.35;10.77;;;7.90;68.00;;;;;;4991083;28;20394;-77
2021/10/18 02:25:34;;;;;;;18.98;10.50;;;7.90;67.60;;;;;;4991029;28;20394;-77
2021/10/18 02:28:00;;;;;;;14.65;10.60;;;7.90;66.50;;;;;;4992941;28;20410;-78
2021/10/18 02:30:25;;;;;;;12.10;9.82;;;7.90;66.70;;;;;;4991167;28;20398;-78
2021/10/18 02:32:51;;;;;;;15.02;11.00;;;7.90;67.10;;;;;;5006166;28;20410;-76
2021/10/18 02:35:16;;;;;;;21.95;11.70;;;7.90;67.40;;;;;;4992011;28;20513;-77
2021/10/18 02:37:42;;;;;;;19.15;10.30;;;7.90;67.30;;;;;;4991288;28;20421;-78
2021/10/18 02:40:09;;;;;;;17.95;10.70;;;7.90;67.10;;;;;;4991573;28;20397;-76
2021/10/18 02:42:34;;;;;;;14.45;10.07;;;7.80;66.20;;;;;;4993948;28;20433;-76
2021/10/18 02:45:00;;;;;;;17.10;10.43;;;7.80;66.70;;;;;;4999559;28;20978;-78
2021/10/18 02:47:26;;;;;;;16.73;10.73;;;7.80;67.10;;;;;;4989798;28;20402;-77
2021/10/18 02:49:51;;;;;;;17.60;10.63;;;7.80;66.10;;;;;;4991783;28;20694;-77
2021/10/18 02:52:17;;;;;;;15.93;10.50;;;7.80;66.80;;;;;;4991193;28;20383;-78
2021/10/18 02:54:42;;;;;;;16.20;10.93;;;7.80;66.20;;;;;;4998476;28;20768;-79
2021/10/18 02:57:08;;;;;;;14.07;10.10;;;7.80;66.30;;;;;;5006802;28;20405;-81
2021/10/18 02:59:33;;;;;;;18.33;10.90;;;7.80;66.80;;;;;;5002878;28;20406;-81
2021/10/18 03:01:59;;;;;;;15.57;9.50;;;7.80;67.40;;;;;;5001420;28;20406;-81
2021/10/18 03:04:24;;;;;;;13.73;9.43;;;7.80;66.20;;;;;;5006019;28;20406;-79
2021/10/18 03:06:50;;;;;;;14.40;10.33;;;7.80;65.60;;;;;;5010219;28;20434;-80
2021/10/18 03:09:16;;;;;;;14.02;9.50;;;7.70;65.50;;;;;;5007443;28;20413;-79
2021/10/18 03:11:41;;;;;;;19.90;10.63;;;7.70;66.10;;;;;;4995953;28;20417;-78
2021/10/18 03:14:07;;;;;;;13.65;10.00;;;7.70;66.00;;;;;;5007729;28;20401;-78
2021/10/18 03:16:32;;;;;;;17.00;9.77;;;7.70;66.40;;;;;;5018560;28;20416;-79
2021/10/18 03:18:58;;;;;;;14.05;9.30;;;7.70;66.10;;;;;;5019987;28;20388;-77
2021/10/18 03:21:24;;;;;;;17.95;11.15;;;7.70;66.40;;;;;;5013683;28;20396;-78
2021/10/18 03:23:49;;;;;;;15.60;9.30;;;7.60;66.60;;;;;;5011376;28;20491;-78
2021/10/18 03:26:15;;;;;;;13.50;10.13;;;7.60;68.20;;;;;;5011706;28;20421;-77
2021/10/18 03:28:42;;;;;;;15.00;9.70;;;7.60;69.00;;;;;;5016416;28;20390;-74
2021/10/18 03:31:08;;;;;;;14.13;9.90;;;7.50;70.20;;;;;;5013410;28;20806;-78
2021/10/18 03:33:38;;;;;;;17.25;11.00;;;7.50;70.30;;;;;;5001950;28;20398;-79
2021/10/18 03:36:05;;;;;;;16.38;10.80;;;7.50;70.20;;;;;;5001514;28;20490;-78
2021/10/18 03:38:31;;;;;;;16.90;10.53;;;7.50;70.80;;;;;;5001903;28;20406;-80
2021/10/18 03:40:57;;;;;;;14.10;8.93;;;7.50;70.60;;;;;;4999859;28;20484;-79
2021/10/18 03:43:22;;;;;;;15.38;9.57;;;7.50;70.60;;;;;;5001776;28;20484;-80
2021/10/18 03:45:48;;;;;;;15.20;10.50;;;7.60;68.70;;;;;;5002401;28;20398;-78
2021/10/18 03:48:14;;;;;;;14.05;9.55;;;7.50;69.20;;;;;;5004930;28;20401;-77
2021/10/18 03:50:40;;;;;;;14.47;10.40;;;7.60;69.70;;;;;;5006298;28;20398;-79
2021/10/18 03:53:06;;;;;;;15.02;9.65;;;7.60;69.50;;;;;;5004126;28;20394;-80
2021/10/18 03:55:32;;;;;;;14.40;9.50;;;7.50;70.00;;;;;;5004033;28;20406;-75
2021/10/18 03:57:57;;;;;;;13.23;10.10;;;7.50;69.70;;;;;;5004941;28;20382;-81
2021/10/18 04:00:23;;;;;;;16.50;9.73;;;7.50;69.50;;;;;;5006597;28;20405;-79
2021/10/18 04:02:48;;;;;;;13.07;9.40;;;7.60;69.20;;;;;;5006753;28;20408;-77
2021/10/18 04:05:14;;;;;;;19.60;10.32;;;7.60;69.10;;;;;;5013142;28;20443;-77
2021/10/18 04:07:44;;;;;;;13.52;10.15;;;7.50;69.70;;;;;;5007793;28;20403;-80
2021/10/18 04:10:10;;;;;;;14.52;10.65;;;7.50;69.50;;;;;;5002694;28;20386;-78
2021/10/18 04:12:36;;;;;;;16.13;10.30;;;7.50;70.20;;;;;;5026591;28;20404;-80
2021/10/18 04:15:02;;;;;;;16.83;10.25;;;7.50;71.70;;;;;;5020533;28;20380;-81
2021/10/18 04:17:27;;;;;;;13.07;10.10;;;7.40;71.90;;;;;;4996668;28;20400;-80
2021/10/18 04:19:53;;;;;;;14.77;9.57;;;7.50;71.70;;;;;;4981449;28;20448;-80
2021/10/18 04:22:18;;;;;;;13.70;10.60;;;7.40;71.60;;;;;;4981062;28;20867;-78
2021/10/18 04:24:44;;;;;;;14.00;10.10;;;7.40;72.70;;;;;;4980491;28;20948;-80
2021/10/18 04:27:09;;;;;;;14.50;10.23;;;7.40;72.90;;;;;;4998005;28;20392;-79
2021/10/18 04:29:35;;;;;;;14.33;10.10;;;7.40;72.80;;;;;;5000383;28;20394;-79
2021/10/18 04:32:00;;;;;;;15.90;10.10;;;7.40;72.70;;;;;;5008134;28;20413;-79
2021/10/18 04:34:26;;;;;;;16.37;10.00;;;7.30;72.60;;;;;;5002858;28;20390;-80
2021/10/18 04:36:53;;;;;;;15.73;10.60;;;7.30;72.80;;;;;;5005914;28;20394;-77
2021/10/18 04:39:20;;;;;;;17.83;10.77;;;7.30;72.70;;;;;;5008667;28;20418;-77
2021/10/18 04:41:45;;;;;;;15.48;10.85;;;7.20;74.00;;;;;;5003108;28;20407;-79
2021/10/18 04:44:11;;;;;;;19.80;11.43;;;7.20;75.40;;;;;;5000995;28;20416;-76
2021/10/18 04:46:37;;;;;;;15.67;10.90;;;7.20;76.00;;;;;;5041361;28;20419;-75
2021/10/18 04:49:03;;;;;;;15.43;10.18;;;7.20;75.60;;;;;;5023053;28;20452;-80
2021/10/18 04:51:29;;;;;;;16.73;10.35;;;7.20;75.40;;;;;;5012458;28;20394;-79
2021/10/18 04:53:54;;;;;;;15.90;10.80;;;7.10;76.00;;;;;;5000416;28;20397;-79
2021/10/18 04:56:20;;;;;;;16.90;10.40;;;7.10;76.80;;;;;;5006419;28;20394;-79
2021/10/18 04:58:45;;;;;;;18.47;11.57;;;7.10;77.90;;;;;;5001346;28;20876;-77
2021/10/18 05:01:11;;;;;;;16.93;11.90;;;7.10;78.10;;;;;;5004620;28;20449;-78
2021/10/18 05:03:36;;;;;;;18.77;11.27;;;7.10;79.00;;;;;;5001241;28;20883;-80
2021/10/18 05:06:02;;;;;;;20.33;11.27;;;7.10;78.90;;;;;;5000884;28;20481;-79
2021/10/18 05:08:28;;;;;;;17.23;12.00;;;7.20;77.90;;;;;;4999483;28;20441;-79
2021/10/18 05:10:54;;;;;;;17.30;11.63;;;7.10;78.20;;;;;;5000576;28;20405;-80
2021/10/18 05:13:19;;;;;;;17.98;11.18;;;7.00;79.10;;;;;;5001197;28;20962;-80
2021/10/18 05:15:48;;;;;;;21.33;12.35;;;7.10;79.90;;;;;;5011836;28;20809;-81
2021/10/18 05:18:14;;;;;;;17.90;11.45;;;7.00;79.90;;;;;;5020521;28;20402;-80
2021/10/18 05:20:39;;;;;;;18.53;12.97;;;6.90;81.10;;;;;;5020032;28;20392;-78
2021/10/18 05:23:05;;;;;;;19.80;12.47;;;6.90;82.30;;;;;;5013928;28;20398;-80
2021/10/18 05:25:31;;;;;;;21.30;11.63;;;6.90;83.10;;;;;;5000846;28;20398;-78
2021/10/18 05:27:57;;;;;;;16.83;11.60;;;6.90;83.20;;;;;;5000461;28;20386;-79
2021/10/18 05:30:25;;;;;;;22.27;13.57;;;6.90;83.50;;;;;;5002223;28;20405;-77
2021/10/18 05:32:55;;;;;;;19.60;12.75;;;6.90;83.80;;;;;;5005576;28;20391;-78
2021/10/18 05:35:21;;;;;;;20.13;12.23;;;6.90;84.50;;;;;;5001744;28;20453;-78
2021/10/18 05:37:48;;;;;;;19.23;12.18;;;6.90;84.80;;;;;;5000051;28;20394;-79
2021/10/18 05:40:15;;;;;;;20.67;12.68;;;7.00;83.30;;;;;;5000910;28;20411;-80
2021/10/18 05:42:40;;;;;;;17.83;13.23;;;7.00;83.70;;;;;;5014278;28;20398;-79
2021/10/18 05:45:07;;;;;;;17.45;11.85;;;7.10;84.00;;;;;;4997724;28;20476;-79
2021/10/18 05:47:32;;;;;;;21.95;14.00;;;7.10;81.50;;;;;;4998280;28;20401;-79
2021/10/18 05:49:59;;;;;;;17.63;12.30;;;7.10;80.30;;;;;;4997103;28;20864;-80
2021/10/18 05:52:27;;;;;;;18.10;11.63;;;7.10;81.70;;;;;;4997949;28;20410;-79
2021/10/18 05:54:53;;;;;;;20.60;12.38;;;7.00;81.70;;;;;;5000511;28;20413;-79
2021/10/18 05:57:19;;;;;;;22.15;12.73;;;7.00;82.80;;;;;;5000800;28;20923;-80
2021/10/18 05:59:45;;;;;;;27.00;13.33;;;7.10;82.20;;;;;;5006586;28;20398;-79
2021/10/18 06:02:10;;;;;;;20.57;12.07;;;7.10;81.40;;;;;;5012758;28;20487;-79
2021/10/18 06:04:41;;;;;;;23.55;13.20;;;7.10;82.40;;;;;;5013232;28;20421;-79
2021/10/18 06:07:07;;;;;;;20.77;12.70;;;7.00;82.70;;;;;;5009752;28;20408;-78
2021/10/18 06:09:32;;;;;;;25.55;14.13;;;7.00;83.80;;;;;;5006790;28;20440;-77
2021/10/18 06:11:58;;;;;;;20.88;13.10;;;7.00;84.40;;;;;;5003761;28;20868;-77
2021/10/18 06:14:23;;;;;;;23.35;13.15;;;7.00;84.40;;;;;;4996983;28;20386;-78
2021/10/18 06:16:49;;;;;;;25.50;14.35;;;7.10;85.50;;;;;;4993819;28;20477;-77
2021/10/18 06:19:14;;;;;;;18.42;12.50;;;7.10;85.20;;;;;;4994324;28;20441;-78
2021/10/18 06:21:40;;;;;;;27.50;13.48;;;7.10;84.10;;;;;;4997506;28;20389;-79
2021/10/18 06:24:05;;;;;;;21.48;12.77;;;7.10;83.90;;;;;;4999113;28;20411;-79
2021/10/18 06:26:31;;;;;;;22.08;13.93;;;7.20;83.00;;;;;;4998095;28;20456;-80
2021/10/18 06:28:57;;;;;;;22.30;13.88;;;7.20;81.90;;;;;;5014491;28;20405;-78
2021/10/18 06:31:22;;;;;;;26.23;13.93;;;7.30;81.90;;;;;;5001561;28;20536;-78
2021/10/18 06:33:48;;;;;;;23.27;14.03;;;7.30;80.90;;;;;;5000146;28;20393;-82
2021/10/18 06:36:13;;;;;;;22.13;13.00;;;7.40;79.40;;;;;;5000703;28;20464;-81
2021/10/18 06:38:39;;;;;;;23.60;13.10;;;7.50;78.90;;;;;;5000254;28;20394;-79
2021/10/18 06:41:04;;;;;;;19.73;13.33;;;7.50;77.10;;;;;;5014111;28;20404;-78
2021/10/18 06:43:30;;;;;;;25.50;13.30;;;7.60;75.30;;;;;;5018190;28;20404;-79
2021/10/18 06:45:55;;;;;;;23.20;13.80;;;7.70;75.30;;;;;;5016298;28;20380;-78
2021/10/18 06:48:21;;;;;;;21.27;13.40;;;7.80;74.50;;;;;;5014203;28;20838;-78
2021/10/18 06:50:48;;;;;;;23.67;13.40;;;7.90;73.10;;;;;;5000806;28;20586;-77
2021/10/18 06:53:19;;;;;;;21.23;13.57;;;7.90;71.50;;;;;;4979559;28;20417;-79
2021/10/18 06:55:45;;;;;;;18.92;13.05;;;8.00;70.70;;;;;;4980922;28;20404;-78
2021/10/18 06:58:11;;;;;;;21.77;13.63;;;8.10;70.00;;;;;;4982583;28;20400;-77
2021/10/18 07:00:37;;;;;;;20.02;13.05;;;8.20;68.20;;;;;;4981657;28;20406;-77
2021/10/18 07:03:03;;;;;;;24.90;13.40;;;8.30;65.50;;;;;;4982322;28;20526;-76
2021/10/18 07:05:30;;;;;;;19.10;12.27;;;8.40;64.80;;;;;;4973733;28;20424;-77
2021/10/18 07:07:55;;;;;;;19.00;12.45;;;8.50;62.60;;;;;;4982575;28;20483;-77
2021/10/18 07:10:21;;;;;;;21.73;12.57;;;8.60;63.40;;;;;;5011828;28;20415;-78
2021/10/18 07:12:46;;;;;;;20.88;12.77;;;8.70;63.10;;;;;;4977339;28;20458;-77
2021/10/18 07:15:12;;;;;;;20.10;12.15;;;8.80;61.40;;;;;;4983736;28;20400;-77
2021/10/18 07:17:38;;;;;;;21.30;12.90;;;8.80;61.10;;;;;;4988917;28;20424;-77
2021/10/18 07:20:06;;;;;;;21.13;13.20;;;8.90;60.40;;;;;;4990886;28;20460;-77
2021/10/18 07:22:41;;;;;;;20.80;12.85;;;9.00;59.30;;;;;;4985044;28;20396;-75
2021/10/18 07:25:07;;;;;;;19.00;12.90;;;9.10;59.00;;;;;;4982516;28;20416;-77
2021/10/18 07:27:33;;;;;;;21.38;12.65;;;9.20;58.40;;;;;;4982136;28;20464;-77
2021/10/18 07:29:58;;;;;;;17.98;12.70;;;9.30;57.80;;;;;;4980550;28;20885;-76
2021/10/18 07:32:24;;;;;;;18.38;12.60;;;9.40;56.70;;;;;;4985242;28;20478;-77
2021/10/18 07:34:50;;;;;;;20.85;11.88;;;9.50;55.40;;;;;;4983593;28;20384;-76
2021/10/18 07:37:18;;;;;;;23.85;12.98;;;9.80;53.30;;;;;;4976547;28;20490;-77
2021/10/18 07:39:44;;;;;;;22.02;12.93;;;9.90;51.50;;;;;;5013815;28;20418;-79
2021/10/18 07:42:14;;;;;;;24.33;13.37;;;10.00;51.80;;;;;;5008529;28;20400;-77
2021/10/18 07:44:40;;;;;;;19.08;12.88;;;10.00;51.10;;;;;;4987694;28;20492;-76
2021/10/18 07:47:05;;;;;;;21.80;13.65;;;10.10;51.20;;;;;;4979636;28;20413;-76
2021/10/18 07:49:35;;;;;;;20.63;12.77;;;10.20;50.90;;;;;;4979475;28;20414;-75
2021/10/18 07:52:00;;;;;;;20.95;12.95;;;10.20;50.50;;;;;;4994015;28;20380;-72
2021/10/18 07:54:29;;;;;;;19.35;12.80;;;10.20;50.20;;;;;;4995695;28;20563;-77
2021/10/18 07:56:54;;;;;;;17.55;12.75;;;10.40;49.00;;;;;;4983695;28;20422;-76
2021/10/18 07:59:20;;;;;;;20.13;12.90;;;10.50;48.60;;;;;;4982704;28;20435;-76
2021/10/18 08:01:46;;;;;;;19.92;13.68;;;10.50;48.30;;;;;;4978806;28;20408;-76
2021/10/18 08:04:11;;;;;;;19.63;13.40;;;10.70;47.70;;;;;;4977923;28;20484;-74
2021/10/18 08:06:37;;;;;;;25.52;13.70;;;10.80;46.70;;;;;;5010784;28;20411;-77
2021/10/18 08:09:03;;;;;;;23.67;15.00;;;10.80;46.30;;;;;;4992192;28;20404;-76
2021/10/18 08:11:28;;;;;;;23.65;13.80;;;10.90;46.90;;;;;;4988824;28;20443;-73
2021/10/18 08:13:54;;;;;;;24.42;14.80;;;11.10;45.40;;;;;;4975489;28;20450;-78
2021/10/18 08:16:19;;;;;;;28.35;14.73;;;11.20;44.80;;;;;;4975143;28;20404;-75
2021/10/18 08:18:45;;;;;;;21.42;14.27;;;11.30;44.40;;;;;;4981157;28;20403;-79
2021/10/18 08:21:11;;;;;;;22.90;14.80;;;11.50;44.10;;;;;;4995595;28;20439;-79
2021/10/18 08:23:37;;;;;;;28.38;15.75;;;11.50;43.40;;;;;;4979212;28;20408;-79
2021/10/18 08:26:04;;;;;;;24.67;15.00;;;11.70;43.20;;;;;;4978786;28;20407;-76
2021/10/18 08:28:30;;;;;;;29.00;15.07;;;11.70;42.40;;;;;;4982983;28;20397;-79
2021/10/18 08:30:56;;;;;;;28.58;15.93;;;11.90;42.20;;;;;;4989063;28;20423;-78
2021/10/18 08:33:22;;;;;;;23.48;15.88;;;12.00;42.40;;;;;;4990542;28;20407;-77
2021/10/18 08:35:48;;;;;;;22.63;14.90;;;12.10;41.30;;;;;;4990766;28;20563;-78
2021/10/18 08:38:18;;;;;;;29.23;16.73;;;12.10;40.90;;;;;;4988985;28;20443;-76
2021/10/18 08:45:44;;;;;;;28.33;16.33;;;12.30;40.50;;;;;;4978828;28;20536;-78
2021/10/18 08:48:10;;;;;;;26.70;16.77;;;12.30;41.00;;;;;;4979468;28;20407;-77
2021/10/18 08:50:36;;;;;;;28.37;17.40;;;12.30;41.60;;;;;;4980933;28;20420;-78
2021/10/18 08:53:02;;;;;;;28.85;17.67;;;12.40;40.70;;;;;;4979617;28;20401;-77
2021/10/18 08:55:28;;;;;;;28.10;17.25;;;12.50;40.50;;;;;;4974668;28;20545;-77
2021/10/18 08:57:53;;;;;;;28.23;18.10;;;12.60;39.70;;;;;;4972386;28;20471;-77
2021/10/18 09:00:40;;;;;;;26.02;17.80;;;12.60;39.70;;;;;;4976721;28;20400;-77
2021/10/18 09:03:28;;;;;;;26.63;17.60;;;12.70;39.30;;;;;;4977141;28;20381;-78
2021/10/18 09:06:21;;;;;;;32.22;18.35;;;12.90;38.80;;;;;;4974956;28;20459;-77
2021/10/18 09:08:52;;;;;;;35.08;19.58;;;13.00;38.50;;;;;;4973378;28;20487;-76
2021/10/18 09:11:20;;;;;;;31.02;18.25;;;13.20;37.40;;;;;;4973924;28;20388;-76
2021/10/18 09:13:57;;;;;;;28.38;18.60;;;13.30;36.90;;;;;;4974351;28;20484;-77
2021/10/18 09:16:27;;;;;;;26.60;17.60;;;13.30;36.70;;;;;;4972984;28;20765;-77
2021/10/18 09:19:10;;;;;;;33.05;19.38;;;13.50;37.40;;;;;;4974072;28;20403;-77
2021/10/18 09:22:12;;;;;;;37.28;18.80;;;13.50;36.70;;;;;;4971961;28;20404;-77
2021/10/18 09:24:42;;;;;;;31.42;19.98;;;13.40;36.20;;;;;;4973856;28;20432;-77
2021/10/18 09:27:17;;;;;;;33.25;18.30;;;13.50;35.90;;;;;;4975168;28;20411;-77
2021/10/18 09:29:49;;;;;;;30.85;18.85;;;13.50;36.10;;;;;;4974536;28;20438;-77
2021/10/18 09:32:29;;;;;;;28.83;18.30;;;13.60;36.20;;;;;;4984831;28;20463;-77
2021/10/18 09:35:05;;;;;;;32.28;18.58;;;13.70;36.20;;;;;;4984047;28;20420;-76
2021/10/18 09:37:42;;;;;;;29.00;18.17;;;13.80;35.20;;;;;;4974773;28;20889;-76
2021/10/18 09:40:08;;;;;;;36.95;18.35;;;13.80;35.50;;;;;;4974667;28;20399;-77
2021/10/18 09:42:34;;;;;;;35.10;18.35;;;13.90;35.50;;;;;;4973932;28;20443;-77
2021/10/18 10:52:43;;;;;;;20.52;14.25;;;16.00;27.00;;;;;;4960263;29;20424;-77
2021/10/18 10:55:23;;;;;;;21.93;13.30;;;16.00;26.40;;;;;;4968017;28;20431;-76
2021/10/18 10:57:55;;;;;;;20.95;13.30;;;15.90;26.90;;;;;;4973868;28;20419;-77
2021/10/18 11:00:42;;;;;;;21.83;13.27;;;15.80;27.20;;;;;;4974457;28;20512;-77
2021/10/18 11:03:23;;;;;;;19.80;13.43;;;15.70;27.20;;;;;;4974028;28;20881;-77
2021/10/18 11:06:04;;;;;;;22.57;12.77;;;15.70;27.20;;;;;;4977437;28;20819;-78
2021/10/18 11:08:35;;;;;;;22.85;13.10;;;15.90;27.40;;;;;;4972947;28;20428;-78
2021/10/18 11:11:23;;;;;;;21.80;13.52;;;15.90;27.20;;;;;;4980344;28;20387;-76
2021/10/18 11:13:56;;;;;;;24.33;13.50;;;16.10;27.10;;;;;;4993379;28;20508;-79
2021/10/18 11:16:25;;;;;;;19.48;12.95;;;16.10;26.60;;;;;;4957023;28;20813;-78
2021/10/18 11:18:57;;;;;;;24.15;13.77;;;16.10;26.50;;;;;;4988796;28;20457;-76
2021/10/18 11:21:25;;;;;;;22.13;12.80;;;16.20;26.70;;;;;;4974061;28;20392;-77
2021/10/18 11:24:04;;;;;;;22.55;13.93;;;16.30;26.30;;;;;;4974117;28;20412;-77
2021/10/18 11:26:35;;;;;;;21.08;13.20;;;16.50;25.90;;;;;;4976108;28;20392;-78
2021/10/18 11:29:06;;;;;;;20.40;13.43;;;16.60;25.50;;;;;;4974477;28;20418;-78
2021/10/18 11:31:38;;;;;;;21.73;13.45;;;16.60;25.20;;;;;;5006908;28;20423;-78
2021/10/18 11:34:03;;;;;;;21.40;13.07;;;16.60;24.80;;;;;;4975125;28;20820;-78
2021/10/18 11:36:30;;;;;;;20.85;12.80;;;16.60;25.30;;;;;;4974721;28;20503;-77
2021/10/18 11:39:13;;;;;;;20.05;12.55;;;16.60;25.90;;;;;;4975169;28;21132;-78
2021/10/18 11:41:58;;;;;;;20.45;11.82;;;16.60;26.20;;;;;;4982060;28;20826;-77
2021/10/18 11:44:42;;;;;;;20.05;11.75;;;16.60;25.30;;;;;;4980589;28;20447;-78
2021/10/18 11:47:29;;;;;;;23.80;12.20;;;16.50;25.90;;;;;;4979047;28;20396;-78
2021/10/18 11:50:25;;;;;;;19.25;12.00;;;16.40;26.30;;;;;;4959267;28;20469;-77
2021/10/18 11:52:59;;;;;;;19.55;12.07;;;16.50;25.90;;;;;;4958415;28;20469;-78
2021/10/18 11:55:36;;;;;;;19.00;11.60;;;16.50;26.10;;;;;;4958213;28;20473;-77
2021/10/18 11:58:05;;;;;;;16.33;10.77;;;16.50;26.40;;;;;;4976352;28;20475;-77
2021/10/18 12:00:42;;;;;;;18.08;10.90;;;16.50;25.80;;;;;;4976877;28;20428;-76
2021/10/18 12:03:08;;;;;;;21.90;11.50;;;16.50;25.10;;;;;;4975875;28;20893;-76
2021/10/18 12:05:45;;;;;;;18.13;10.38;;;16.60;24.80;;;;;;4975307;28;20825;-78
2021/10/18 12:08:12;;;;;;;17.95;10.77;;;16.50;25.00;;;;;;4976987;28;20869;-77
2021/10/18 12:10:40;;;;;;;17.98;10.10;;;16.50;25.10;;;;;;4980614;28;20406;-77
2021/10/18 12:13:12;;;;;;;14.98;9.90;;;16.50;25.50;;;;;;4982940;28;20879;-77
2021/10/18 12:15:56;;;;;;;17.25;10.70;;;16.60;24.60;;;;;;4982411;28;20420;-78
2021/10/18 12:18:35;;;;;;;24.70;10.80;;;16.50;24.60;;;;;;4978414;28;20407;-76
2021/10/18 12:21:07;;;;;;;15.63;10.68;;;16.50;24.70;;;;;;4972093;28;20503;-77
2021/10/18 12:23:45;;;;;;;15.15;10.45;;;16.60;25.20;;;;;;4974728;28;20416;-77
2021/10/18 12:26:19;;;;;;;15.35;9.50;;;16.70;25.40;;;;;;4974853;28;20404;-77
2021/10/18 12:28:49;;;;;;;16.70;10.50;;;16.80;25.10;;;;;;4980620;28;20399;-77
2021/10/18 12:31:38;;;;;;;17.73;11.70;;;16.90;25.80;;;;;;4987657;28;20401;-75
2021/10/18 12:34:10;;;;;;;20.05;11.07;;;16.90;26.20;;;;;;4988232;28;20400;-77
2021/10/18 12:36:57;;;;;;;18.42;12.07;;;16.80;26.00;;;;;;4990406;28;20408;-75
2021/10/18 12:39:41;;;;;;;16.95;11.13;;;16.80;26.80;;;;;;4991285;28;20424;-76
2021/10/18 12:42:09;;;;;;;27.35;12.90;;;16.70;26.90;;;;;;4991806;28;20398;-75
2021/10/18 12:44:39;;;;;;;19.83;11.80;;;16.70;26.40;;;;;;4983883;28;20416;-79
2021/10/18 12:47:26;;;;;;;21.85;12.80;;;16.70;25.90;;;;;;4988996;28;20607;-75
2021/10/18 12:50:03;;;;;;;20.55;11.52;;;16.80;25.70;;;;;;4972277;28;20444;-75
2021/10/18 12:52:32;;;;;;;18.53;11.70;;;16.90;25.70;;;;;;4974216;28;20489;-77
2021/10/18 12:54:59;;;;;;;17.92;10.55;;;17.00;25.30;;;;;;4992329;28;20507;-77
2021/10/18 12:57:31;;;;;;;20.70;11.50;;;17.00;25.80;;;;;;4992708;28;20436;-77
2021/10/18 13:00:02;;;;;;;19.15;11.10;;;17.10;24.60;;;;;;4983453;28;20398;-76
2021/10/18 13:02:31;;;;;;;26.75;13.25;;;17.10;24.30;;;;;;4973739;28;20392;-76
2021/10/18 13:05:18;;;;;;;17.02;11.48;;;17.10;24.90;;;;;;4964209;28;20583;-77
2021/10/18 13:07:49;;;;;;;16.13;10.40;;;17.20;24.10;;;;;;4953789;28;20394;-76
2021/10/18 13:10:15;;;;;;;19.30;11.40;;;17.30;24.50;;;;;;4958625;28;20420;-75
2021/10/18 13:12:42;;;;;;;15.90;10.73;;;17.20;24.10;;;;;;4972809;28;20392;-77
2021/10/18 13:15:09;;;;;;;18.20;11.45;;;17.10;24.40;;;;;;4974542;28;20388;-77
2021/10/18 13:17:35;;;;;;;18.77;11.63;;;17.10;24.40;;;;;;4974035;28;20763;-76
2021/10/18 13:20:00;;;;;;;17.98;12.45;;;17.10;24.20;;;;;;4973830;28;20404;-76
2021/10/18 13:22:26;;;;;;;21.52;12.85;;;17.10;24.50;;;;;;4973108;28;20458;-75
2021/10/18 13:24:51;;;;;;;20.98;11.68;;;17.10;24.80;;;;;;4973525;28;21037;-76
2021/10/18 13:27:18;;;;;;;18.00;12.03;;;17.00;24.70;;;;;;4973318;28;20400;-76
2021/10/18 13:29:43;;;;;;;15.98;11.82;;;17.10;24.70;;;;;;4973874;28;20388;-75
2021/10/18 13:32:09;;;;;;;21.83;12.73;;;17.10;24.50;;;;;;4973525;28;20459;-75
2021/10/18 13:34:35;;;;;;;19.10;12.20;;;17.10;24.50;;;;;;4973577;28;20893;-76
2021/10/18 13:37:02;;;;;;;18.40;11.88;;;17.20;24.10;;;;;;4973597;28;20977;-75
2021/10/18 13:39:28;;;;;;;22.70;12.65;;;17.10;24.70;;;;;;4972901;28;20486;-77
2021/10/18 13:41:53;;;;;;;21.73;12.43;;;17.10;25.00;;;;;;4975722;28;20439;-77
2021/10/18 13:44:20;;;;;;;15.40;11.88;;;17.00;25.20;;;;;;4973971;28;20839;-76
2021/10/18 13:46:45;;;;;;;21.15;12.40;;;16.90;25.60;;;;;;4979059;28;20408;-77
2021/10/18 13:49:11;;;;;;;22.50;11.90;;;17.00;25.80;;;;;;4979835;28;20389;-77
2021/10/18 13:51:37;;;;;;;17.92;12.70;;;17.00;25.50;;;;;;4975251;28;20394;-76